createdAt,value
2023-04-19T00:01:44.583Z,14.10
2023-04-19T00:04:11.941Z,14.57
2023-04-19T00:06:42.017Z,16.55
2023-04-19T00:09:09.520Z,13.70
2023-04-19T00:11:36.663Z,13.75
2023-04-19T00:14:03.775Z,14.32
2023-04-19T00:16:30.890Z,13.35
2023-04-19T00:18:57.947Z,13.85
2023-04-19T00:21:25.063Z,13.68
2023-04-19T00:23:54.064Z,13.20
2023-04-19T00:26:21.409Z,13.75
2023-04-19T00:28:51.982Z,16.98
2023-04-19T00:31:19.146Z,12.95
2023-04-19T00:33:46.136Z,13.57
2023-04-19T00:36:13.287Z,12.80
2023-04-19T00:38:40.811Z,15.27
2023-04-19T00:41:10.490Z,13.80
2023-04-19T00:43:37.489Z,13.23
2023-04-19T00:46:05.125Z,11.75
2023-04-19T00:48:32.405Z,14.10
2023-04-19T00:50:59.713Z,12.68
2023-04-19T00:53:26.914Z,12.95
2023-04-19T00:55:57.693Z,12.48
2023-04-19T00:58:25.612Z,13.43
2023-04-19T01:00:52.661Z,11.15
2023-04-19T01:03:20.698Z,12.93
2023-04-19T01:05:48.695Z,11.95
2023-04-19T01:08:16.590Z,12.65
2023-04-19T01:10:43.730Z,10.60
2023-04-19T01:13:10.696Z,11.57
2023-04-19T01:15:38.257Z,11.85
2023-04-19T01:18:05.580Z,11.68
2023-04-19T01:20:32.740Z,12.38
2023-04-19T01:22:59.895Z,11.38
2023-04-19T01:25:27.751Z,12.30
2023-04-19T01:27:54.739Z,12.10
2023-04-19T01:30:24.258Z,11.75
2023-04-19T01:32:51.487Z,13.02
2023-04-19T01:35:18.886Z,12.10
2023-04-19T01:37:45.867Z,10.95
2023-04-19T01:40:13.569Z,10.10
2023-04-19T01:42:40.680Z,13.45
2023-04-19T01:45:08.300Z,13.05
2023-04-19T01:47:35.756Z,11.98
2023-04-19T01:50:02.770Z,12.57
2023-04-19T01:52:29.922Z,11.95
2023-04-19T01:54:56.985Z,15.82
2023-04-19T01:57:23.967Z,14.48
2023-04-19T01:59:53.417Z,11.35
2023-04-19T02:02:20.906Z,11.07
2023-04-19T02:04:48.115Z,12.60
2023-04-19T02:07:15.180Z,14.07
2023-04-19T02:09:42.292Z,12.10
2023-04-19T02:12:10.042Z,12.38
2023-04-19T02:14:37.274Z,12.95
2023-04-19T02:17:04.393Z,12.27
2023-04-19T02:19:31.402Z,13.73
2023-04-19T02:21:59.213Z,12.43
2023-04-19T02:24:26.259Z,12.43
2023-04-19T02:26:53.380Z,13.98
2023-04-19T02:29:21.075Z,12.25
2023-04-19T02:31:48.264Z,12.50
2023-04-19T02:34:15.699Z,13.38
2023-04-19T02:36:43.090Z,13.30
2023-04-19T02:39:10.316Z,14.05
2023-04-19T02:41:38.998Z,12.95
2023-04-19T02:44:06.088Z,16.30
2023-04-19T02:46:34.770Z,14.88
2023-04-19T02:49:01.892Z,13.88
2023-04-19T02:51:29.516Z,17.05
2023-04-19T02:53:56.779Z,16.90
2023-04-19T02:56:24.624Z,13.98
2023-04-19T02:58:54.727Z,15.63
2023-04-19T03:01:21.861Z,15.60
2023-04-19T03:03:48.951Z,17.63
2023-04-19T03:06:16.928Z,15.40
2023-04-19T03:08:44.081Z,17.23
2023-04-19T03:11:12.808Z,14.88
2023-04-19T03:13:40.731Z,15.60
2023-04-19T03:16:08.869Z,14.88
2023-04-19T03:18:36.976Z,17.05
2023-04-19T03:21:05.441Z,15.68
2023-04-19T03:26:08.276Z,14.45
2023-04-19T03:28:41.279Z,15.27
2023-04-19T03:31:14.616Z,14.75
2023-04-19T03:33:41.905Z,15.27
2023-04-19T03:36:11.191Z,14.82
2023-04-19T03:38:40.785Z,15.48
2023-04-19T03:41:22.371Z,15.45
2023-04-19T03:43:55.800Z,13.48
2023-04-19T03:46:25.348Z,13.02
2023-04-19T03:48:53.221Z,14.05
2023-04-19T03:51:20.826Z,13.70
2023-04-19T03:53:47.931Z,13.88
2023-04-19T03:56:18.895Z,12.95
2023-04-19T03:58:47.014Z,13.38
2023-04-19T04:01:21.848Z,13.50
2023-04-19T04:03:50.394Z,13.45
2023-04-19T04:06:18.920Z,12.77
2023-04-19T04:08:46.789Z,13.40
2023-04-19T04:11:14.005Z,12.80
2023-04-19T04:13:41.386Z,13.70
2023-04-19T04:16:15.743Z,14.25
2023-04-19T04:18:43.021Z,13.40
2023-04-19T04:21:14.003Z,11.43
2023-04-19T04:23:43.685Z,14.55
2023-04-19T04:26:17.057Z,14.10
2023-04-19T04:28:54.007Z,11.43
2023-04-19T04:31:21.154Z,13.30
2023-04-19T04:33:48.569Z,14.77
2023-04-19T04:36:18.896Z,13.20
2023-04-19T04:38:46.225Z,13.02
2023-04-19T04:41:13.320Z,11.23
2023-04-19T04:43:40.466Z,14.93
2023-04-19T04:46:07.920Z,14.15
2023-04-19T04:48:39.003Z,13.95
2023-04-19T04:51:06.601Z,13.98
2023-04-19T04:53:35.310Z,13.13
2023-04-19T04:56:05.694Z,14.77
2023-04-19T04:58:33.087Z,11.45
2023-04-19T05:01:06.014Z,12.68
2023-04-19T05:03:38.010Z,12.35
2023-04-19T05:06:08.691Z,11.57
2023-04-19T05:08:36.318Z,11.15
2023-04-19T05:11:18.420Z,11.48
2023-04-19T05:13:46.634Z,14.75
2023-04-19T05:16:14.267Z,12.43
2023-04-19T05:18:44.494Z,11.90
2023-04-19T05:21:11.664Z,10.80
2023-04-19T05:23:39.805Z,11.32
2023-04-19T05:26:07.484Z,11.15
2023-04-19T05:28:34.584Z,9.77
2023-04-19T05:31:17.335Z,9.15
2023-04-19T05:34:02.636Z,12.50
2023-04-19T05:36:29.745Z,10.38
2023-04-19T05:38:56.935Z,11.40
2023-04-19T05:41:24.122Z,10.02
2023-04-19T05:43:51.209Z,10.55
2023-04-19T05:46:19.151Z,10.88
2023-04-19T05:48:46.444Z,9.50
2023-04-19T05:51:32.353Z,12.35
2023-04-19T05:54:06.339Z,10.25
2023-04-19T05:56:33.465Z,7.93
2023-04-19T05:59:01.114Z,9.57
2023-04-19T06:01:28.456Z,9.60
2023-04-19T06:03:56.082Z,8.70
2023-04-19T06:06:24.943Z,10.30
2023-04-19T06:08:54.602Z,9.70
2023-04-19T06:11:26.875Z,8.52
2023-04-19T06:13:56.291Z,8.25
2023-04-19T06:16:23.467Z,8.60
2023-04-19T06:18:50.685Z,8.20
2023-04-19T06:21:17.785Z,9.82
2023-04-19T06:23:44.861Z,7.85
2023-04-19T06:26:12.023Z,8.13
2023-04-19T06:28:39.066Z,8.55
2023-04-19T06:31:06.213Z,8.88
2023-04-19T06:33:33.367Z,8.10
2023-04-19T06:36:00.394Z,8.77
2023-04-19T06:38:27.517Z,7.50
2023-04-19T06:40:54.534Z,7.88
2023-04-19T06:43:21.659Z,6.90
2023-04-19T06:45:48.849Z,6.47
2023-04-19T06:48:16.059Z,6.75
2023-04-19T06:50:43.104Z,8.15
2023-04-19T06:53:10.230Z,7.05
2023-04-19T06:55:37.260Z,6.70
2023-04-19T06:58:04.263Z,9.50
2023-04-19T07:00:31.395Z,7.35
2023-04-19T07:02:59.907Z,7.43
2023-04-19T07:05:27.548Z,7.60
2023-04-19T07:07:54.706Z,7.43
2023-04-19T07:10:21.942Z,6.82
2023-04-19T07:12:48.942Z,5.82
2023-04-19T07:15:16.013Z,5.70
2023-04-19T07:17:43.134Z,7.07
2023-04-19T07:20:10.865Z,5.63
2023-04-19T07:22:37.999Z,5.75
2023-04-19T07:25:05.644Z,7.68
2023-04-19T07:27:32.763Z,7.20
2023-04-19T07:29:59.938Z,4.88
2023-04-19T07:32:27.444Z,5.75
2023-04-19T07:34:54.760Z,4.75
2023-04-19T07:37:21.752Z,4.40
2023-04-19T07:39:49.041Z,5.22
2023-04-19T07:42:16.350Z,4.55
2023-04-19T07:44:43.518Z,5.05
2023-04-19T07:47:10.891Z,7.07
2023-04-19T07:49:38.439Z,4.85
2023-04-19T07:52:08.137Z,5.45
2023-04-19T07:54:35.946Z,6.18
2023-04-19T07:57:03.428Z,6.85
2023-04-19T07:59:33.308Z,5.35
2023-04-19T08:02:01.053Z,5.07
2023-04-19T08:04:28.886Z,5.28
2023-04-19T08:06:56.470Z,5.90
2023-04-19T08:09:23.668Z,4.88
2023-04-19T08:11:50.838Z,5.22
2023-04-19T08:14:32.397Z,5.85
2023-04-19T08:19:35.403Z,5.30
2023-04-19T08:22:04.467Z,5.18
2023-04-19T08:24:31.625Z,6.00
2023-04-19T08:27:00.142Z,4.75
2023-04-19T08:29:27.401Z,7.97
2023-04-19T08:31:54.612Z,7.65
2023-04-19T08:34:21.762Z,5.75
2023-04-19T08:37:00.092Z,6.88
2023-04-19T08:39:34.425Z,5.47
2023-04-19T08:42:17.728Z,6.90
2023-04-19T08:45:23.556Z,5.18
2023-04-19T08:47:58.702Z,7.00
2023-04-19T08:50:33.232Z,6.15
2023-04-19T08:53:16.476Z,4.85
2023-04-19T08:58:30.694Z,5.07
2023-04-19T09:01:12.927Z,6.03
2023-04-19T09:03:58.400Z,4.50
2023-04-19T09:06:28.155Z,4.70
2023-04-19T09:11:49.827Z,6.20
2023-04-19T09:14:19.311Z,7.30
2023-04-19T09:16:47.023Z,5.13
2023-04-19T09:19:23.065Z,6.50
2023-04-19T09:21:53.750Z,4.22
2023-04-19T09:25:14.534Z,3.42
2023-04-19T09:27:36.335Z,4.03
2023-04-19T09:30:06.520Z,6.13
2023-04-19T09:32:49.674Z,4.75
2023-04-19T09:35:17.438Z,5.63
2023-04-19T09:40:31.339Z,6.25
2023-04-19T09:45:30.865Z,5.00
2023-04-19T09:48:04.106Z,5.78
2023-04-19T09:50:32.231Z,5.60
2023-04-19T09:53:01.186Z,5.75
2023-04-19T09:55:29.829Z,4.13
2023-04-19T09:58:00.523Z,3.25
2023-04-19T10:00:29.813Z,3.50
2023-04-19T10:03:05.589Z,6.32
2023-04-19T10:05:33.878Z,4.50
2023-04-19T10:08:03.369Z,4.65
2023-04-19T10:13:16.116Z,6.50
2023-04-19T10:15:52.547Z,4.28
2023-04-19T10:18:25.180Z,5.35
2023-04-19T10:21:06.823Z,3.97
2023-04-19T10:23:34.759Z,4.82
2023-04-19T10:26:01.824Z,6.50
2023-04-19T10:28:30.070Z,5.30
2023-04-19T10:31:02.024Z,4.47
2023-04-19T10:33:36.863Z,3.58
2023-04-19T10:36:04.968Z,4.70
2023-04-19T10:38:52.234Z,4.55
2023-04-19T10:41:19.903Z,3.45
2023-04-19T10:43:48.821Z,4.40
2023-04-19T10:46:21.999Z,4.65
2023-04-19T10:48:59.318Z,3.63
2023-04-19T10:51:33.213Z,6.32
2023-04-19T10:54:08.264Z,3.58
2023-04-19T10:56:35.519Z,3.93
2023-04-19T10:59:02.754Z,5.55
2023-04-19T11:01:43.219Z,5.00
2023-04-19T11:04:15.217Z,3.50
2023-04-19T11:06:51.682Z,6.47
2023-04-19T11:09:38.913Z,3.83
2023-04-19T11:12:08.821Z,4.53
2023-04-19T11:14:42.524Z,5.22
2023-04-19T11:17:32.391Z,5.00
2023-04-19T11:20:01.810Z,4.78
2023-04-19T11:22:33.651Z,4.32
2023-04-19T11:25:06.928Z,3.25
2023-04-19T11:27:34.849Z,3.85
2023-04-19T11:30:12.372Z,7.57
2023-04-19T11:32:47.143Z,4.22
2023-04-19T11:35:14.822Z,5.15
2023-04-19T11:37:41.787Z,3.97
2023-04-19T11:40:09.575Z,4.72
2023-04-19T11:42:36.714Z,6.43
2023-04-19T11:45:04.123Z,6.07
2023-04-19T11:47:32.934Z,6.15
2023-04-19T11:50:38.709Z,3.42
2023-04-19T11:53:22.222Z,7.78
2023-04-19T11:55:51.504Z,4.00
2023-04-19T11:58:44.802Z,3.67
2023-04-19T12:01:19.441Z,3.38
2023-04-19T12:04:05.180Z,4.20
2023-04-19T12:06:32.493Z,10.20
2023-04-19T12:08:59.637Z,10.32
2023-04-19T12:11:44.562Z,5.43
2023-04-19T12:14:14.571Z,5.28
2023-04-19T12:16:42.269Z,3.70
2023-04-19T12:19:18.531Z,5.95
2023-04-19T12:21:47.064Z,4.60
2023-04-19T12:24:17.290Z,4.45
2023-04-19T12:26:56.944Z,5.65
2023-04-19T12:29:24.244Z,7.07
2023-04-19T12:31:51.563Z,4.18
2023-04-19T12:34:19.096Z,4.93
2023-04-19T12:36:46.096Z,5.15
2023-04-19T12:39:13.522Z,5.20
2023-04-19T12:41:40.880Z,4.55
2023-04-19T12:44:07.919Z,4.18
2023-04-19T12:46:35.301Z,5.13
2023-04-19T12:49:02.464Z,5.88
2023-04-19T12:51:30.483Z,4.40
2023-04-19T12:53:57.707Z,5.03
2023-04-19T12:56:24.752Z,5.10
2023-04-19T12:58:51.868Z,6.05
2023-04-19T13:01:19.510Z,4.13
2023-04-19T13:03:46.892Z,6.28
2023-04-19T13:06:15.498Z,5.93
2023-04-19T13:08:47.049Z,5.07
2023-04-19T13:11:17.615Z,3.40
2023-04-19T13:13:44.760Z,4.90
2023-04-19T13:16:11.945Z,4.10
2023-04-19T13:18:39.080Z,8.85
2023-04-19T13:21:08.336Z,4.85
2023-04-19T13:23:36.073Z,5.13
2023-04-19T13:26:03.140Z,5.20
2023-04-19T13:28:30.990Z,4.90
2023-04-19T13:30:58.230Z,4.30
2023-04-19T13:33:26.905Z,4.30
2023-04-19T13:35:53.989Z,4.10
2023-04-19T13:38:21.205Z,18.67
2023-04-19T13:40:48.180Z,4.10
2023-04-19T13:43:15.165Z,4.30
2023-04-19T13:45:42.202Z,7.47
2023-04-19T13:48:09.396Z,6.15
2023-04-19T13:50:36.401Z,14.98
2023-04-19T13:53:03.362Z,5.35
2023-04-19T13:55:30.314Z,5.32
2023-04-19T13:57:57.311Z,3.90
2023-04-19T14:00:24.721Z,4.47
2023-04-19T14:02:52.743Z,8.30
2023-04-19T14:05:19.957Z,3.75
2023-04-19T14:07:47.098Z,3.60
2023-04-19T14:10:14.217Z,6.82
2023-04-19T14:12:41.446Z,4.18
2023-04-19T14:15:09.052Z,5.50
2023-04-19T14:17:36.442Z,4.18
2023-04-19T14:20:06.860Z,4.50
2023-04-19T14:22:35.458Z,6.28
2023-04-19T14:25:04.109Z,6.55
2023-04-19T14:27:32.013Z,3.97
2023-04-19T14:29:59.073Z,7.03
2023-04-19T14:32:27.288Z,4.95
2023-04-19T14:34:56.156Z,4.28
2023-04-19T14:37:24.450Z,5.00
2023-04-19T14:39:52.238Z,5.78
2023-04-19T14:42:22.629Z,4.85
2023-04-19T14:44:53.116Z,3.83
2023-04-19T14:47:21.209Z,4.47
2023-04-19T14:49:48.334Z,6.13
2023-04-19T14:52:16.556Z,6.93
2023-04-19T14:54:43.575Z,4.32
2023-04-19T14:57:10.752Z,4.93
2023-04-19T14:59:37.874Z,5.25
2023-04-19T15:02:05.690Z,6.13
2023-04-19T15:04:39.881Z,4.75
2023-04-19T15:07:08.263Z,6.75
2023-04-19T15:09:35.538Z,7.38
2023-04-19T15:12:02.644Z,4.15
2023-04-19T15:14:29.878Z,4.32
2023-04-19T15:16:57.107Z,3.72
2023-04-19T15:19:24.233Z,3.67
2023-04-19T15:21:51.422Z,4.85
2023-04-19T15:24:18.485Z,3.95
2023-04-19T15:26:45.642Z,3.65
2023-04-19T15:29:12.692Z,11.27
2023-04-19T15:31:39.948Z,5.65
2023-04-19T15:34:07.228Z,5.55
2023-04-19T15:36:34.381Z,4.60
2023-04-19T15:39:01.608Z,4.80
2023-04-19T15:41:28.815Z,4.50
2023-04-19T15:43:57.731Z,2.90
2023-04-19T15:46:24.834Z,4.63
2023-04-19T15:48:51.943Z,6.70
2023-04-19T15:51:18.967Z,3.40
2023-04-19T15:53:46.092Z,4.82
2023-04-19T15:56:13.114Z,4.72
2023-04-19T15:58:40.190Z,4.70
2023-04-19T16:01:13.639Z,3.17
2023-04-19T16:03:41.445Z,5.20
2023-04-19T16:06:09.681Z,2.85
2023-04-19T16:08:36.753Z,3.90
2023-04-19T16:11:05.625Z,4.22
2023-04-19T16:13:32.796Z,5.47
2023-04-19T16:16:01.396Z,5.50
2023-04-19T16:18:28.470Z,4.13
2023-04-19T16:20:56.080Z,3.75
2023-04-19T16:23:24.398Z,3.80
2023-04-19T16:25:51.593Z,6.15
2023-04-19T16:28:19.771Z,5.13
2023-04-19T16:30:47.557Z,6.78
2023-04-19T16:33:15.812Z,4.53
2023-04-19T16:35:43.277Z,5.45
2023-04-19T16:38:10.324Z,5.18
2023-04-19T16:40:37.420Z,4.13
2023-04-19T16:43:06.252Z,8.55
2023-04-19T16:45:33.636Z,3.85
2023-04-19T16:48:01.059Z,4.55
2023-04-19T16:50:28.294Z,3.97
2023-04-19T16:52:55.585Z,5.57
2023-04-19T16:55:22.677Z,3.45
2023-04-19T16:57:51.154Z,5.60
2023-04-19T17:00:18.975Z,3.35
2023-04-19T17:02:46.318Z,4.00
2023-04-19T17:05:15.945Z,5.10
2023-04-19T17:07:44.030Z,4.95
2023-04-19T17:10:12.092Z,5.80
2023-04-19T17:12:39.294Z,4.72
2023-04-19T17:15:06.801Z,5.65
2023-04-19T17:17:34.061Z,7.93
2023-04-19T17:20:01.722Z,6.68
2023-04-19T17:22:29.197Z,3.95
2023-04-19T17:24:57.421Z,4.72
2023-04-19T17:27:24.929Z,6.05
2023-04-19T17:29:51.918Z,7.05
2023-04-19T17:32:19.029Z,5.78
2023-04-19T17:34:46.273Z,6.47
2023-04-19T17:37:13.305Z,5.43
2023-04-19T17:39:40.531Z,4.97
2023-04-19T17:42:07.671Z,8.88
2023-04-19T17:44:34.720Z,4.72
2023-04-19T17:47:01.996Z,7.75
2023-04-19T17:49:29.293Z,5.20
2023-04-19T17:51:59.512Z,8.75
2023-04-19T17:54:26.590Z,5.63
2023-04-19T17:56:54.252Z,5.03
2023-04-19T17:59:22.293Z,6.00
2023-04-19T18:01:49.415Z,5.13
2023-04-19T18:04:19.954Z,7.10
2023-04-19T18:06:47.597Z,6.20
2023-04-19T18:09:15.541Z,5.97
2023-04-19T18:11:42.854Z,6.93
2023-04-19T18:14:10.052Z,7.50
2023-04-19T18:16:37.280Z,6.97
2023-04-19T18:19:04.287Z,8.05
2023-04-19T18:21:31.356Z,6.47
2023-04-19T18:23:58.355Z,6.60
2023-04-19T18:26:25.722Z,5.90
2023-04-19T18:28:52.887Z,7.60
2023-04-19T18:31:20.175Z,6.13
2023-04-19T18:33:47.357Z,6.00
2023-04-19T18:36:14.384Z,7.22
2023-04-19T18:38:41.781Z,4.25
2023-04-19T18:41:08.961Z,8.45
2023-04-19T18:43:36.213Z,5.50
2023-04-19T18:46:03.410Z,5.13
2023-04-19T18:48:30.624Z,6.45
2023-04-19T18:50:57.946Z,5.75
2023-04-19T18:53:28.573Z,8.20
2023-04-19T18:56:00.187Z,6.90
2023-04-19T18:58:27.895Z,5.20
2023-04-19T19:00:55.982Z,7.28
2023-04-19T19:05:54.903Z,6.53
2023-04-19T19:08:22.588Z,8.88
2023-04-19T19:11:16.270Z,7.60
2023-04-19T19:13:36.842Z,6.32
2023-04-19T19:16:05.750Z,4.47
2023-04-19T19:18:33.006Z,4.85
2023-04-19T19:21:00.353Z,6.07
2023-04-19T19:23:35.367Z,7.75
2023-04-19T19:26:03.941Z,7.00
2023-04-19T19:28:31.098Z,6.95
2023-04-19T19:30:58.226Z,7.40
2023-04-19T19:33:28.347Z,5.38
2023-04-19T19:35:55.997Z,4.82
2023-04-19T19:38:23.005Z,5.88
2023-04-19T19:43:20.129Z,6.28
2023-04-19T19:45:47.094Z,5.38
2023-04-19T19:48:14.469Z,4.07
2023-04-19T19:53:11.563Z,4.30
2023-04-19T19:55:38.699Z,4.55
2023-04-19T20:03:06.620Z,4.88
2023-04-19T20:05:34.435Z,6.22
2023-04-19T20:08:12.018Z,5.32
2023-04-19T20:10:42.541Z,5.97
2023-04-19T20:13:11.840Z,5.22
2023-04-19T20:15:40.029Z,6.05
2023-04-19T20:18:08.130Z,6.40
2023-04-19T20:20:36.562Z,5.63
2023-04-19T20:23:03.850Z,6.32
2023-04-19T20:25:32.440Z,6.60
2023-04-19T20:28:03.438Z,4.65
2023-04-19T20:30:31.150Z,8.73
2023-04-19T20:32:58.287Z,5.13
2023-04-19T20:35:25.405Z,6.03
2023-04-19T20:37:52.422Z,5.95
2023-04-19T20:40:19.489Z,5.00
2023-04-19T20:42:46.885Z,5.82
2023-04-19T20:45:14.363Z,6.47
2023-04-19T20:47:42.794Z,5.22
2023-04-19T20:50:11.149Z,4.32
2023-04-19T20:52:38.214Z,8.50
2023-04-19T20:55:05.871Z,5.30
2023-04-19T20:57:32.938Z,8.65
2023-04-19T21:00:00.422Z,5.78
2023-04-19T21:02:28.206Z,4.90
2023-04-19T21:04:55.514Z,6.03
2023-04-19T21:07:22.439Z,5.53
2023-04-19T21:09:49.536Z,6.18
2023-04-19T21:12:17.578Z,6.55
2023-04-19T21:14:47.781Z,5.45
2023-04-19T21:17:16.311Z,8.50
2023-04-19T21:19:43.319Z,5.80
2023-04-19T21:22:10.712Z,5.78
2023-04-19T21:24:37.815Z,7.70
2023-04-19T21:27:05.152Z,6.03
2023-04-19T21:29:32.726Z,5.20
2023-04-19T21:31:59.870Z,5.78
2023-04-19T21:34:27.143Z,5.32
2023-04-19T21:36:54.222Z,7.82
2023-04-19T21:39:21.342Z,4.53
2023-04-19T21:41:48.278Z,7.30
2023-04-19T21:44:15.215Z,7.03
2023-04-19T21:46:42.280Z,7.53
2023-04-19T21:49:09.403Z,6.95
2023-04-19T21:51:36.548Z,6.05
2023-04-19T21:54:03.509Z,5.95
2023-04-19T21:56:30.477Z,4.82
2023-04-19T21:58:57.621Z,7.80
2023-04-19T22:01:24.578Z,6.28
2023-04-19T22:03:51.844Z,5.53
2023-04-19T22:06:19.252Z,5.95
2023-04-19T22:08:47.935Z,5.80
2023-04-19T22:11:15.555Z,7.10
2023-04-19T22:13:44.073Z,5.28
2023-04-19T22:16:11.361Z,6.10
2023-04-19T22:18:41.254Z,9.02
2023-04-19T22:21:09.812Z,5.65
2023-04-19T22:23:37.565Z,8.52
2023-04-19T22:26:04.872Z,6.55
2023-04-19T22:28:33.714Z,5.53
2023-04-19T22:31:00.794Z,6.30
2023-04-19T22:33:27.812Z,9.68
2023-04-19T22:35:54.761Z,7.97
2023-04-19T22:38:21.680Z,8.05
2023-04-19T22:40:48.624Z,7.00
2023-04-19T22:43:16.648Z,6.57
2023-04-19T22:45:47.792Z,8.70
2023-04-19T22:48:15.165Z,6.57
2023-04-19T22:50:42.239Z,10.23
2023-04-19T22:53:13.123Z,8.75
2023-04-19T22:55:41.441Z,9.75
2023-04-19T22:58:09.837Z,6.00
2023-04-19T23:00:37.953Z,8.23
2023-04-19T23:03:05.375Z,7.05
2023-04-19T23:05:33.502Z,7.88
2023-04-19T23:08:00.514Z,6.18
2023-04-19T23:10:27.614Z,6.95
2023-04-19T23:12:56.241Z,8.02
2023-04-19T23:15:24.762Z,7.88
2023-04-19T23:17:52.450Z,10.10
2023-04-19T23:20:19.522Z,5.82
2023-04-19T23:22:46.554Z,7.97
2023-04-19T23:25:13.581Z,8.15
2023-04-19T23:27:40.649Z,6.10
2023-04-19T23:30:08.996Z,8.32
2023-04-19T23:32:36.173Z,5.97
2023-04-19T23:35:03.647Z,6.07
2023-04-19T23:37:30.649Z,8.82
2023-04-19T23:39:57.708Z,6.35
2023-04-19T23:42:25.012Z,5.88
2023-04-19T23:44:55.689Z,7.28
2023-04-19T23:47:23.149Z,6.00
2023-04-19T23:49:50.304Z,6.75
2023-04-19T23:52:18.170Z,7.15
2023-04-19T23:54:45.211Z,9.70
2023-04-19T23:57:12.313Z,6.50
2023-04-19T23:59:39.319Z,6.78
